sensor_id;sensor_type;location;lat;lon;timestamp;P1;durP1;ratioP1;P2;durP2;ratioP2
17949;SDS011;9100;48.700;9.316;2024-03-08T00:00:40;14.2;;;8.3;;
17949;SDS011;9100;48.700;9.316;2024-03-08T00:01:40;14.2;;;8.3;;
17949;SDS011;9100;48.700;9.316;2024-03-08T00:02:40;14.2;;;8.3;;
17949;SDS011;9100;48.700;9.316;2024-03-08T00:03:37;13.6;;;8.9;;
17949;SDS011;9100;48.700;9.316;2024-03-08T00:03:39;13.6;;;8.9;;
17949;SDS011;9100;48.700;9.316;2024-03-08T00:04:40;13.6;;;8.9;;
17949;SDS011;9100;48.700;9.316;2024-03-08T00:05:40;13.6;;;8.9;;
17949;SDS011;9100;48.700;9.316;2024-03-08T00:06:40;13.6;;;8.9;;
17949;SDS011;9100;48.700;9.316;2024-03-08T00:07:41;13.6;;;8.9;;
17949;SDS011;9100;48.700;9.316;2024-03-08T00:08:36;17.9;;;11.5;;
17949;SDS011;9100;48.700;9.316;2024-03-08T00:08:40;17.9;;;11.5;;
17949;SDS011;9100;48.700;9.316;2024-03-08T00:09:39;17.9;;;11.5;;
17949;SDS011;9100;48.700;9.316;2024-03-08T00:10:40;17.9;;;11.5;;
17949;SDS011;9100;48.700;9.316;2024-03-08T00:11:40;17.9;;;11.5;;
17949;SDS011;9100;48.700;9.316;2024-03-08T00:12:40;17.9;;;11.5;;
17949;SDS011;9100;48.700;9.316;2024-03-08T00:13:36;18.2;;;11.8;;
17949;SDS011;9100;48.700;9.316;2024-03-08T00:13:40;18.2;;;11.8;;
17949;SDS011;9100;48.700;9.316;2024-03-08T00:14:40;18.2;;;11.8;;
17949;SDS011;9100;48.700;9.316;2024-03-08T00:15:40;18.2;;;11.8;;
17949;SDS011;9100;48.700;9.316;2024-03-08T00:16:40;18.2;;;11.8;;
17949;SDS011;9100;48.700;9.316;2024-03-08T00:17:40;18.2;;;11.8;;
17949;SDS011;9100;48.700;9.316;2024-03-08T00:18:36;11;;;7.9;;
17949;SDS011;9100;48.700;9.316;2024-03-08T00:18:40;11;;;7.9;;
17949;SDS011;9100;48.700;9.316;2024-03-08T00:19:40;11;;;7.9;;
17949;SDS011;9100;48.700;9.316;2024-03-08T00:20:40;11;;;7.9;;
17949;SDS011;9100;48.700;9.316;2024-03-08T00:21:40;11;;;7.9;;
17949;SDS011;9100;48.700;9.316;2024-03-08T00:22:40;11;;;7.9;;
17949;SDS011;9100;48.700;9.316;2024-03-08T00:23:36;13.1;;;8.2;;
17949;SDS011;9100;48.700;9.316;2024-03-08T00:23:40;13.1;;;8.2;;
17949;SDS011;9100;48.700;9.316;2024-03-08T00:24:40;13.1;;;8.2;;
17949;SDS011;9100;48.700;9.316;2024-03-08T00:25:40;13.1;;;8.2;;
17949;SDS011;9100;48.700;9.316;2024-03-08T00:26:40;13.1;;;8.2;;
17949;SDS011;9100;48.700;9.316;2024-03-08T00:27:40;13.1;;;8.2;;
17949;SDS011;9100;48.700;9.316;2024-03-08T00:28:36;13.2;;;7;;
17949;SDS011;9100;48.700;9.316;2024-03-08T00:28:40;13.2;;;7;;
17949;SDS011;9100;48.700;9.316;2024-03-08T00:29:40;13.2;;;7;;
17949;SDS011;9100;48.700;9.316;2024-03-08T00:30:40;13.2;;;7;;
17949;SDS011;9100;48.700;9.316;2024-03-08T00:31:40;13.2;;;7;;
17949;SDS011;9100;48.700;9.316;2024-03-08T00:32:40;13.2;;;7;;
17949;SDS011;9100;48.700;9.316;2024-03-08T00:33:36;12.5;;;7.9;;
17949;SDS011;9100;48.700;9.316;2024-03-08T00:33:40;12.5;;;7.9;;
17949;SDS011;9100;48.700;9.316;2024-03-08T00:34:40;12.5;;;7.9;;
17949;SDS011;9100;48.700;9.316;2024-03-08T00:35:40;12.5;;;7.9;;
17949;SDS011;9100;48.700;9.316;2024-03-08T00:36:40;12.5;;;7.9;;
17949;SDS011;9100;48.700;9.316;2024-03-08T00:37:40;12.5;;;7.9;;
17949;SDS011;9100;48.700;9.316;2024-03-08T00:38:36;18.5;;;10;;
17949;SDS011;9100;48.700;9.316;2024-03-08T00:38:40;18.5;;;10;;
17949;SDS011;9100;48.700;9.316;2024-03-08T00:39:40;18.5;;;10;;
17949;SDS011;9100;48.700;9.316;2024-03-08T00:40:40;18.5;;;10;;
17949;SDS011;9100;48.700;9.316;2024-03-08T00:41:40;18.5;;;10;;
17949;SDS011;9100;48.700;9.316;2024-03-08T00:42:40;18.5;;;10;;
17949;SDS011;9100;48.700;9.316;2024-03-08T00:43:36;12.1;;;5.7;;
17949;SDS011;9100;48.700;9.316;2024-03-08T00:43:40;12.1;;;5.7;;
17949;SDS011;9100;48.700;9.316;2024-03-08T00:44:40;12.1;;;5.7;;
17949;SDS011;9100;48.700;9.316;2024-03-08T00:45:40;12.1;;;5.7;;
17949;SDS011;9100;48.700;9.316;2024-03-08T00:46:40;12.1;;;5.7;;
17949;SDS011;9100;48.700;9.316;2024-03-08T00:47:40;12.1;;;5.7;;
17949;SDS011;9100;48.700;9.316;2024-03-08T00:48:36;11.6;;;7.4;;
17949;SDS011;9100;48.700;9.316;2024-03-08T00:48:40;11.6;;;7.4;;
17949;SDS011;9100;48.700;9.316;2024-03-08T00:49:40;11.6;;;7.4;;
17949;SDS011;9100;48.700;9.316;2024-03-08T00:50:40;11.6;;;7.4;;
17949;SDS011;9100;48.700;9.316;2024-03-08T00:51:40;11.6;;;7.4;;
17949;SDS011;9100;48.700;9.316;2024-03-08T00:52:40;11.6;;;7.4;;
17949;SDS011;9100;48.700;9.316;2024-03-08T00:53:36;11.2;;;7.8;;
17949;SDS011;9100;48.700;9.316;2024-03-08T00:53:40;11.2;;;7.8;;
17949;SDS011;9100;48.700;9.316;2024-03-08T00:54:40;11.2;;;7.8;;
17949;SDS011;9100;48.700;9.316;2024-03-08T00:55:40;11.2;;;7.8;;
17949;SDS011;9100;48.700;9.316;2024-03-08T00:56:40;11.2;;;7.8;;
17949;SDS011;9100;48.700;9.316;2024-03-08T00:57:40;11.2;;;7.8;;
17949;SDS011;9100;48.700;9.316;2024-03-08T00:58:36;9.7;;;6.1;;
17949;SDS011;9100;48.700;9.316;2024-03-08T00:58:40;9.7;;;6.1;;
17949;SDS011;9100;48.700;9.316;2024-03-08T00:59:40;9.7;;;6.1;;
17949;SDS011;9100;48.700;9.316;2024-03-08T01:00:40;9.7;;;6.1;;
17949;SDS011;9100;48.700;9.316;2024-03-08T01:01:40;9.7;;;6.1;;
17949;SDS011;9100;48.700;9.316;2024-03-08T01:02:40;9.7;;;6.1;;
17949;SDS011;9100;48.700;9.316;2024-03-08T01:03:37;11.9;;;6.5;;
17949;SDS011;9100;48.700;9.316;2024-03-08T01:03:40;11.9;;;6.5;;
17949;SDS011;9100;48.700;9.316;2024-03-08T01:04:40;11.9;;;6.5;;
17949;SDS011;9100;48.700;9.316;2024-03-08T01:05:40;11.9;;;6.5;;
17949;SDS011;9100;48.700;9.316;2024-03-08T01:06:40;11.9;;;6.5;;
17949;SDS011;9100;48.700;9.316;2024-03-08T01:07:40;11.9;;;6.5;;
17949;SDS011;9100;48.700;9.316;2024-03-08T01:08:36;17.7;;;11.5;;
17949;SDS011;9100;48.700;9.316;2024-03-08T01:08:40;17.7;;;11.5;;
17949;SDS011;9100;48.700;9.316;2024-03-08T01:09:40;17.7;;;11.5;;
17949;SDS011;9100;48.700;9.316;2024-03-08T01:10:40;17.7;;;11.5;;
17949;SDS011;9100;48.700;9.316;2024-03-08T01:11:40;17.7;;;11.5;;
17949;SDS011;9100;48.700;9.316;2024-03-08T01:12:40;17.7;;;11.5;;
17949;SDS011;9100;48.700;9.316;2024-03-08T01:13:37;12.9;;;7;;
17949;SDS011;9100;48.700;9.316;2024-03-08T01:13:40;12.9;;;7;;
17949;SDS011;9100;48.700;9.316;2024-03-08T01:14:40;12.9;;;7;;
17949;SDS011;9100;48.700;9.316;2024-03-08T01:15:40;12.9;;;7;;
17949;SDS011;9100;48.700;9.316;2024-03-08T01:16:40;12.9;;;7;;
17949;SDS011;9100;48.700;9.316;2024-03-08T01:17:40;12.9;;;7;;
17949;SDS011;9100;48.700;9.316;2024-03-08T01:18:36;9.4;;;6.6;;
17949;SDS011;9100;48.700;9.316;2024-03-08T01:18:40;9.4;;;6.6;;
17949;SDS011;9100;48.700;9.316;2024-03-08T01:19:40;9.4;;;6.6;;
17949;SDS011;9100;48.700;9.316;2024-03-08T01:20:40;9.4;;;6.6;;
17949;SDS011;9100;48.700;9.316;2024-03-08T01:21:40;9.4;;;6.6;;
17949;SDS011;9100;48.700;9.316;2024-03-08T01:22:40;9.4;;;6.6;;
17949;SDS011;9100;48.700;9.316;2024-03-08T01:23:36;18.6;;;11.1;;
17949;SDS011;9100;48.700;9.316;2024-03-08T01:23:40;18.6;;;11.1;;
17949;SDS011;9100;48.700;9.316;2024-03-08T01:24:40;18.6;;;11.1;;
17949;SDS011;9100;48.700;9.316;2024-03-08T01:25:40;18.6;;;11.1;;
17949;SDS011;9100;48.700;9.316;2024-03-08T01:26:40;18.6;;;11.1;;
17949;SDS011;9100;48.700;9.316;2024-03-08T01:27:40;18.6;;;11.1;;
17949;SDS011;9100;48.700;9.316;2024-03-08T01:28:36;6.7;;;5.3;;
17949;SDS011;9100;48.700;9.316;2024-03-08T01:28:40;6.7;;;5.3;;
17949;SDS011;9100;48.700;9.316;2024-03-08T01:29:40;6.7;;;5.3;;
17949;SDS011;9100;48.700;9.316;2024-03-08T01:30:40;6.7;;;5.3;;
17949;SDS011;9100;48.700;9.316;2024-03-08T01:31:40;6.7;;;5.3;;
17949;SDS011;9100;48.700;9.316;2024-03-08T01:32:40;6.7;;;5.3;;
17949;SDS011;9100;48.700;9.316;2024-03-08T01:33:36;14.3;;;8.4;;
17949;SDS011;9100;48.700;9.316;2024-03-08T01:33:40;14.3;;;8.4;;
17949;SDS011;9100;48.700;9.316;2024-03-08T01:34:40;14.3;;;8.4;;
17949;SDS011;9100;48.700;9.316;2024-03-08T01:35:40;14.3;;;8.4;;
17949;SDS011;9100;48.700;9.316;2024-03-08T01:36:40;14.3;;;8.4;;
17949;SDS011;9100;48.700;9.316;2024-03-08T01:37:40;14.3;;;8.4;;
17949;SDS011;9100;48.700;9.316;2024-03-08T01:38:36;6.4;;;4.9;;
17949;SDS011;9100;48.700;9.316;2024-03-08T01:38:40;6.4;;;4.9;;
17949;SDS011;9100;48.700;9.316;2024-03-08T01:39:40;6.4;;;4.9;;
17949;SDS011;9100;48.700;9.316;2024-03-08T01:40:40;6.4;;;4.9;;
17949;SDS011;9100;48.700;9.316;2024-03-08T01:41:40;6.4;;;4.9;;
17949;SDS011;9100;48.700;9.316;2024-03-08T01:42:40;6.4;;;4.9;;
17949;SDS011;9100;48.700;9.316;2024-03-08T01:43:36;10.3;;;5.7;;
17949;SDS011;9100;48.700;9.316;2024-03-08T01:43:40;10.3;;;5.7;;
17949;SDS011;9100;48.700;9.316;2024-03-08T01:44:40;10.3;;;5.7;;
17949;SDS011;9100;48.700;9.316;2024-03-08T01:45:40;10.3;;;5.7;;
17949;SDS011;9100;48.700;9.316;2024-03-08T01:46:40;10.3;;;5.7;;
17949;SDS011;9100;48.700;9.316;2024-03-08T01:47:40;10.3;;;5.7;;
17949;SDS011;9100;48.700;9.316;2024-03-08T01:48:36;10.8;;;5.8;;
17949;SDS011;9100;48.700;9.316;2024-03-08T01:48:40;10.8;;;5.8;;
17949;SDS011;9100;48.700;9.316;2024-03-08T01:49:40;10.8;;;5.8;;
17949;SDS011;9100;48.700;9.316;2024-03-08T01:50:40;10.8;;;5.8;;
17949;SDS011;9100;48.700;9.316;2024-03-08T01:51:40;10.8;;;5.8;;
17949;SDS011;9100;48.700;9.316;2024-03-08T01:52:40;10.8;;;5.8;;
17949;SDS011;9100;48.700;9.316;2024-03-08T01:53:36;10.9;;;7.7;;
17949;SDS011;9100;48.700;9.316;2024-03-08T01:53:40;10.9;;;7.7;;
17949;SDS011;9100;48.700;9.316;2024-03-08T01:54:40;10.9;;;7.7;;
17949;SDS011;9100;48.700;9.316;2024-03-08T01:55:40;10.9;;;7.7;;
17949;SDS011;9100;48.700;9.316;2024-03-08T01:56:40;10.9;;;7.7;;
17949;SDS011;9100;48.700;9.316;2024-03-08T01:57:40;10.9;;;7.7;;
17949;SDS011;9100;48.700;9.316;2024-03-08T01:58:36;8.3;;;6.3;;
17949;SDS011;9100;48.700;9.316;2024-03-08T01:58:40;8.3;;;6.3;;
17949;SDS011;9100;48.700;9.316;2024-03-08T01:59:40;8.3;;;6.3;;
17949;SDS011;9100;48.700;9.316;2024-03-08T02:00:40;8.3;;;6.3;;
17949;SDS011;9100;48.700;9.316;2024-03-08T02:01:40;8.3;;;6.3;;
17949;SDS011;9100;48.700;9.316;2024-03-08T02:02:40;8.3;;;6.3;;
17949;SDS011;9100;48.700;9.316;2024-03-08T02:03:37;12.4;;;8.5;;
17949;SDS011;9100;48.700;9.316;2024-03-08T02:03:40;12.4;;;8.5;;
17949;SDS011;9100;48.700;9.316;2024-03-08T02:04:40;12.4;;;8.5;;
17949;SDS011;9100;48.700;9.316;2024-03-08T02:05:40;12.4;;;8.5;;
17949;SDS011;9100;48.700;9.316;2024-03-08T02:06:40;12.4;;;8.5;;
17949;SDS011;9100;48.700;9.316;2024-03-08T02:07:40;12.4;;;8.5;;
17949;SDS011;9100;48.700;9.316;2024-03-08T02:08:37;7.8;;;6.3;;
17949;SDS011;9100;48.700;9.316;2024-03-08T02:08:41;7.8;;;6.3;;
17949;SDS011;9100;48.700;9.316;2024-03-08T02:09:40;7.8;;;6.3;;
17949;SDS011;9100;48.700;9.316;2024-03-08T02:10:40;7.8;;;6.3;;
17949;SDS011;9100;48.700;9.316;2024-03-08T02:11:40;7.8;;;6.3;;
17949;SDS011;9100;48.700;9.316;2024-03-08T02:12:40;7.8;;;6.3;;
17949;SDS011;9100;48.700;9.316;2024-03-08T02:13:36;8.6;;;6.6;;
17949;SDS011;9100;48.700;9.316;2024-03-08T02:13:40;8.6;;;6.6;;
17949;SDS011;9100;48.700;9.316;2024-03-08T02:14:40;8.6;;;6.6;;
17949;SDS011;9100;48.700;9.316;2024-03-08T02:15:56;8.6;;;6.6;;
17949;SDS011;9100;48.700;9.316;2024-03-08T02:16:40;8.6;;;6.6;;
17949;SDS011;9100;48.700;9.316;2024-03-08T02:17:40;8.6;;;6.6;;
17949;SDS011;9100;48.700;9.316;2024-03-08T02:18:36;9.2;;;6.7;;
17949;SDS011;9100;48.700;9.316;2024-03-08T02:18:40;9.2;;;6.7;;
17949;SDS011;9100;48.700;9.316;2024-03-08T02:19:40;9.2;;;6.7;;
17949;SDS011;9100;48.700;9.316;2024-03-08T02:20:40;9.2;;;6.7;;
17949;SDS011;9100;48.700;9.316;2024-03-08T02:21:40;9.2;;;6.7;;
17949;SDS011;9100;48.700;9.316;2024-03-08T02:22:40;9.2;;;6.7;;
17949;SDS011;9100;48.700;9.316;2024-03-08T02:23:36;10.8;;;7;;
17949;SDS011;9100;48.700;9.316;2024-03-08T02:23:40;10.8;;;7;;
17949;SDS011;9100;48.700;9.316;2024-03-08T02:24:40;10.8;;;7;;
17949;SDS011;9100;48.700;9.316;2024-03-08T02:25:40;10.8;;;7;;
17949;SDS011;9100;48.700;9.316;2024-03-08T02:26:40;10.8;;;7;;
17949;SDS011;9100;48.700;9.316;2024-03-08T02:27:40;10.8;;;7;;
17949;SDS011;9100;48.700;9.316;2024-03-08T02:28:36;14;;;7.1;;
17949;SDS011;9100;48.700;9.316;2024-03-08T02:28:40;14;;;7.1;;
17949;SDS011;9100;48.700;9.316;2024-03-08T02:29:40;14;;;7.1;;
17949;SDS011;9100;48.700;9.316;2024-03-08T02:30:40;14;;;7.1;;
17949;SDS011;9100;48.700;9.316;2024-03-08T02:31:40;14;;;7.1;;
17949;SDS011;9100;48.700;9.316;2024-03-08T02:32:40;14;;;7.1;;
17949;SDS011;9100;48.700;9.316;2024-03-08T02:33:36;8.6;;;6.2;;
17949;SDS011;9100;48.700;9.316;2024-03-08T02:33:40;8.6;;;6.2;;
17949;SDS011;9100;48.700;9.316;2024-03-08T02:34:40;8.6;;;6.2;;
17949;SDS011;9100;48.700;9.316;2024-03-08T02:35:40;8.6;;;6.2;;
17949;SDS011;9100;48.700;9.316;2024-03-08T02:36:40;8.6;;;6.2;;
17949;SDS011;9100;48.700;9.316;2024-03-08T02:37:40;8.6;;;6.2;;
17949;SDS011;9100;48.700;9.316;2024-03-08T02:38:36;7.5;;;4.8;;
17949;SDS011;9100;48.700;9.316;2024-03-08T02:38:40;7.5;;;4.8;;
17949;SDS011;9100;48.700;9.316;2024-03-08T02:39:40;7.5;;;4.8;;
17949;SDS011;9100;48.700;9.316;2024-03-08T02:40:40;7.5;;;4.8;;
17949;SDS011;9100;48.700;9.316;2024-03-08T02:41:40;7.5;;;4.8;;
17949;SDS011;9100;48.700;9.316;2024-03-08T02:42:40;7.5;;;4.8;;
17949;SDS011;9100;48.700;9.316;2024-03-08T02:43:37;5.4;;;4.8;;
17949;SDS011;9100;48.700;9.316;2024-03-08T02:43:40;5.4;;;4.8;;
17949;SDS011;9100;48.700;9.316;2024-03-08T02:44:42;5.4;;;4.8;;
17949;SDS011;9100;48.700;9.316;2024-03-08T02:45:40;5.4;;;4.8;;
17949;SDS011;9100;48.700;9.316;2024-03-08T02:46:40;5.4;;;4.8;;
17949;SDS011;9100;48.700;9.316;2024-03-08T02:47:40;5.4;;;4.8;;
17949;SDS011;9100;48.700;9.316;2024-03-08T02:49:45;7.8;;;6.1;;
17949;SDS011;9100;48.700;9.316;2024-03-08T02:49:47;7.8;;;6.1;;
17949;SDS011;9100;48.700;9.316;2024-03-08T02:50:40;7.8;;;6.1;;
17949;SDS011;9100;48.700;9.316;2024-03-08T02:51:40;7.8;;;6.1;;
17949;SDS011;9100;48.700;9.316;2024-03-08T02:52:40;7.8;;;6.1;;
17949;SDS011;9100;48.700;9.316;2024-03-08T02:53:36;11;;;7.6;;
17949;SDS011;9100;48.700;9.316;2024-03-08T02:53:40;11;;;7.6;;
17949;SDS011;9100;48.700;9.316;2024-03-08T02:54:40;11;;;7.6;;
17949;SDS011;9100;48.700;9.316;2024-03-08T02:55:40;11;;;7.6;;
17949;SDS011;9100;48.700;9.316;2024-03-08T02:56:40;11;;;7.6;;
17949;SDS011;9100;48.700;9.316;2024-03-08T02:57:40;11;;;7.6;;
17949;SDS011;9100;48.700;9.316;2024-03-08T02:58:36;6.7;;;5.3;;
17949;SDS011;9100;48.700;9.316;2024-03-08T02:58:40;6.7;;;5.3;;
17949;SDS011;9100;48.700;9.316;2024-03-08T02:59:40;6.7;;;5.3;;
17949;SDS011;9100;48.700;9.316;2024-03-08T03:00:40;6.7;;;5.3;;
17949;SDS011;9100;48.700;9.316;2024-03-08T03:01:40;6.7;;;5.3;;
17949;SDS011;9100;48.700;9.316;2024-03-08T03:02:40;6.7;;;5.3;;
17949;SDS011;9100;48.700;9.316;2024-03-08T03:03:37;8.8;;;6.5;;
17949;SDS011;9100;48.700;9.316;2024-03-08T03:03:40;8.8;;;6.5;;
17949;SDS011;9100;48.700;9.316;2024-03-08T03:04:40;8.8;;;6.5;;
17949;SDS011;9100;48.700;9.316;2024-03-08T03:05:40;8.8;;;6.5;;
17949;SDS011;9100;48.700;9.316;2024-03-08T03:06:40;8.8;;;6.5;;
17949;SDS011;9100;48.700;9.316;2024-03-08T03:07:40;8.8;;;6.5;;
17949;SDS011;9100;48.700;9.316;2024-03-08T03:08:36;9.4;;;6.6;;
17949;SDS011;9100;48.700;9.316;2024-03-08T03:08:40;9.4;;;6.6;;
17949;SDS011;9100;48.700;9.316;2024-03-08T03:09:40;9.4;;;6.6;;
17949;SDS011;9100;48.700;9.316;2024-03-08T03:10:40;9.4;;;6.6;;
17949;SDS011;9100;48.700;9.316;2024-03-08T03:11:43;9.4;;;6.6;;
17949;SDS011;9100;48.700;9.316;2024-03-08T03:12:40;9.4;;;6.6;;
17949;SDS011;9100;48.700;9.316;2024-03-08T03:13:36;13.1;;;9;;
17949;SDS011;9100;48.700;9.316;2024-03-08T03:13:40;13.1;;;9;;
17949;SDS011;9100;48.700;9.316;2024-03-08T03:14:40;13.1;;;9;;
17949;SDS011;9100;48.700;9.316;2024-03-08T03:15:40;13.1;;;9;;
17949;SDS011;9100;48.700;9.316;2024-03-08T03:16:40;13.1;;;9;;
17949;SDS011;9100;48.700;9.316;2024-03-08T03:17:40;13.1;;;9;;
17949;SDS011;9100;48.700;9.316;2024-03-08T03:18:36;4.2;;;3.5;;
17949;SDS011;9100;48.700;9.316;2024-03-08T03:18:40;4.2;;;3.5;;
17949;SDS011;9100;48.700;9.316;2024-03-08T03:19:40;4.2;;;3.5;;
17949;SDS011;9100;48.700;9.316;2024-03-08T03:20:40;4.2;;;3.5;;
17949;SDS011;9100;48.700;9.316;2024-03-08T03:21:40;4.2;;;3.5;;
17949;SDS011;9100;48.700;9.316;2024-03-08T03:22:40;4.2;;;3.5;;
17949;SDS011;9100;48.700;9.316;2024-03-08T03:23:36;8.1;;;6.2;;
17949;SDS011;9100;48.700;9.316;2024-03-08T03:23:40;8.1;;;6.2;;
17949;SDS011;9100;48.700;9.316;2024-03-08T03:24:40;8.1;;;6.2;;
17949;SDS011;9100;48.700;9.316;2024-03-08T03:25:40;8.1;;;6.2;;
17949;SDS011;9100;48.700;9.316;2024-03-08T03:26:40;8.1;;;6.2;;
17949;SDS011;9100;48.700;9.316;2024-03-08T03:27:40;8.1;;;6.2;;
17949;SDS011;9100;48.700;9.316;2024-03-08T03:28:37;9.8;;;7.4;;
17949;SDS011;9100;48.700;9.316;2024-03-08T03:28:40;9.8;;;7.4;;
17949;SDS011;9100;48.700;9.316;2024-03-08T03:29:40;9.8;;;7.4;;
17949;SDS011;9100;48.700;9.316;2024-03-08T03:30:40;9.8;;;7.4;;
17949;SDS011;9100;48.700;9.316;2024-03-08T03:31:40;9.8;;;7.4;;
17949;SDS011;9100;48.700;9.316;2024-03-08T03:32:40;9.8;;;7.4;;
17949;SDS011;9100;48.700;9.316;2024-03-08T03:33:36;7.6;;;5.4;;
17949;SDS011;9100;48.700;9.316;2024-03-08T03:33:40;7.6;;;5.4;;
17949;SDS011;9100;48.700;9.316;2024-03-08T03:34:40;7.6;;;5.4;;
17949;SDS011;9100;48.700;9.316;2024-03-08T03:35:40;7.6;;;5.4;;
17949;SDS011;9100;48.700;9.316;2024-03-08T03:36:40;7.6;;;5.4;;
17949;SDS011;9100;48.700;9.316;2024-03-08T03:37:40;7.6;;;5.4;;
17949;SDS011;9100;48.700;9.316;2024-03-08T03:38:36;11.6;;;5.9;;
17949;SDS011;9100;48.700;9.316;2024-03-08T03:38:40;11.6;;;5.9;;
17949;SDS011;9100;48.700;9.316;2024-03-08T03:39:40;11.6;;;5.9;;
17949;SDS011;9100;48.700;9.316;2024-03-08T03:40:40;11.6;;;5.9;;
17949;SDS011;9100;48.700;9.316;2024-03-08T03:41:40;11.6;;;5.9;;
17949;SDS011;9100;48.700;9.316;2024-03-08T03:42:40;11.6;;;5.9;;
17949;SDS011;9100;48.700;9.316;2024-03-08T03:43:36;12;;;7.8;;
17949;SDS011;9100;48.700;9.316;2024-03-08T03:43:40;12;;;7.8;;
17949;SDS011;9100;48.700;9.316;2024-03-08T03:44:40;12;;;7.8;;
17949;SDS011;9100;48.700;9.316;2024-03-08T03:45:40;12;;;7.8;;
17949;SDS011;9100;48.700;9.316;2024-03-08T03:46:41;12;;;7.8;;
17949;SDS011;9100;48.700;9.316;2024-03-08T03:47:42;12;;;7.8;;
17949;SDS011;9100;48.700;9.316;2024-03-08T03:48:37;12.3;;;8.9;;
17949;SDS011;9100;48.700;9.316;2024-03-08T03:48:40;12.3;;;8.9;;
17949;SDS011;9100;48.700;9.316;2024-03-08T03:49:40;12.3;;;8.9;;
17949;SDS011;9100;48.700;9.316;2024-03-08T03:50:40;12.3;;;8.9;;
17949;SDS011;9100;48.700;9.316;2024-03-08T03:51:40;12.3;;;8.9;;
17949;SDS011;9100;48.700;9.316;2024-03-08T03:52:40;12.3;;;8.9;;
17949;SDS011;9100;48.700;9.316;2024-03-08T03:53:36;12.7;;;9.4;;
17949;SDS011;9100;48.700;9.316;2024-03-08T03:53:40;12.7;;;9.4;;
17949;SDS011;9100;48.700;9.316;2024-03-08T03:54:40;12.7;;;9.4;;
17949;SDS011;9100;48.700;9.316;2024-03-08T03:55:40;12.7;;;9.4;;
17949;SDS011;9100;48.700;9.316;2024-03-08T03:56:40;12.7;;;9.4;;
17949;SDS011;9100;48.700;9.316;2024-03-08T03:57:40;12.7;;;9.4;;
17949;SDS011;9100;48.700;9.316;2024-03-08T03:58:36;7.7;;;5.5;;
17949;SDS011;9100;48.700;9.316;2024-03-08T03:58:40;7.7;;;5.5;;
17949;SDS011;9100;48.700;9.316;2024-03-08T03:59:40;7.7;;;5.5;;
17949;SDS011;9100;48.700;9.316;2024-03-08T04:00:40;7.7;;;5.5;;
17949;SDS011;9100;48.700;9.316;2024-03-08T04:01:41;7.7;;;5.5;;
17949;SDS011;9100;48.700;9.316;2024-03-08T04:02:40;7.7;;;5.5;;
17949;SDS011;9100;48.700;9.316;2024-03-08T04:03:37;16.3;;;10.1;;
17949;SDS011;9100;48.700;9.316;2024-03-08T04:03:40;16.3;;;10.1;;
17949;SDS011;9100;48.700;9.316;2024-03-08T04:04:40;16.3;;;10.1;;
17949;SDS011;9100;48.700;9.316;2024-03-08T04:05:40;16.3;;;10.1;;
17949;SDS011;9100;48.700;9.316;2024-03-08T04:06:40;16.3;;;10.1;;
17949;SDS011;9100;48.700;9.316;2024-03-08T04:07:40;16.3;;;10.1;;
17949;SDS011;9100;48.700;9.316;2024-03-08T04:08:36;13.2;;;10.4;;
17949;SDS011;9100;48.700;9.316;2024-03-08T04:08:40;13.2;;;10.4;;
17949;SDS011;9100;48.700;9.316;2024-03-08T04:09:40;13.2;;;10.4;;
17949;SDS011;9100;48.700;9.316;2024-03-08T04:10:40;13.2;;;10.4;;
17949;SDS011;9100;48.700;9.316;2024-03-08T04:11:40;13.2;;;10.4;;
17949;SDS011;9100;48.700;9.316;2024-03-08T04:12:40;13.2;;;10.4;;
17949;SDS011;9100;48.700;9.316;2024-03-08T04:13:37;9.1;;;6.3;;
17949;SDS011;9100;48.700;9.316;2024-03-08T04:13:40;9.1;;;6.3;;
17949;SDS011;9100;48.700;9.316;2024-03-08T04:14:42;9.1;;;6.3;;
17949;SDS011;9100;48.700;9.316;2024-03-08T04:15:40;9.1;;;6.3;;
17949;SDS011;9100;48.700;9.316;2024-03-08T04:16:40;9.1;;;6.3;;
17949;SDS011;9100;48.700;9.316;2024-03-08T04:17:40;9.1;;;6.3;;
17949;SDS011;9100;48.700;9.316;2024-03-08T04:18:36;12.5;;;9.8;;
17949;SDS011;9100;48.700;9.316;2024-03-08T04:18:40;12.5;;;9.8;;
17949;SDS011;9100;48.700;9.316;2024-03-08T04:19:40;12.5;;;9.8;;
17949;SDS011;9100;48.700;9.316;2024-03-08T04:20:40;12.5;;;9.8;;
17949;SDS011;9100;48.700;9.316;2024-03-08T04:21:40;12.5;;;9.8;;
17949;SDS011;9100;48.700;9.316;2024-03-08T04:22:40;12.5;;;9.8;;
17949;SDS011;9100;48.700;9.316;2024-03-08T04:23:36;5.5;;;4.7;;
17949;SDS011;9100;48.700;9.316;2024-03-08T04:23:40;5.5;;;4.7;;
17949;SDS011;9100;48.700;9.316;2024-03-08T04:24:40;5.5;;;4.7;;
17949;SDS011;9100;48.700;9.316;2024-03-08T04:25:40;5.5;;;4.7;;
17949;SDS011;9100;48.700;9.316;2024-03-08T04:26:40;5.5;;;4.7;;
17949;SDS011;9100;48.700;9.316;2024-03-08T04:27:41;5.5;;;4.7;;
17949;SDS011;9100;48.700;9.316;2024-03-08T04:28:36;10.5;;;5.8;;
17949;SDS011;9100;48.700;9.316;2024-03-08T04:28:40;10.5;;;5.8;;
17949;SDS011;9100;48.700;9.316;2024-03-08T04:29:40;10.5;;;5.8;;
17949;SDS011;9100;48.700;9.316;2024-03-08T04:30:40;10.5;;;5.8;;
17949;SDS011;9100;48.700;9.316;2024-03-08T04:31:40;10.5;;;5.8;;
17949;SDS011;9100;48.700;9.316;2024-03-08T04:32:40;10.5;;;5.8;;
17949;SDS011;9100;48.700;9.316;2024-03-08T04:33:36;13.7;;;10.3;;
17949;SDS011;9100;48.700;9.316;2024-03-08T04:33:40;13.7;;;10.3;;
17949;SDS011;9100;48.700;9.316;2024-03-08T04:34:40;13.7;;;10.3;;
17949;SDS011;9100;48.700;9.316;2024-03-08T04:35:40;13.7;;;10.3;;
17949;SDS011;9100;48.700;9.316;2024-03-08T04:36:40;13.7;;;10.3;;
17949;SDS011;9100;48.700;9.316;2024-03-08T04:37:40;13.7;;;10.3;;
17949;SDS011;9100;48.700;9.316;2024-03-08T04:38:36;11.9;;;7;;
17949;SDS011;9100;48.700;9.316;2024-03-08T04:38:40;11.9;;;7;;
17949;SDS011;9100;48.700;9.316;2024-03-08T04:39:40;11.9;;;7;;
17949;SDS011;9100;48.700;9.316;2024-03-08T04:40:40;11.9;;;7;;
17949;SDS011;9100;48.700;9.316;2024-03-08T04:41:40;11.9;;;7;;
17949;SDS011;9100;48.700;9.316;2024-03-08T04:42:40;11.9;;;7;;
17949;SDS011;9100;48.700;9.316;2024-03-08T04:43:37;8.7;;;5.9;;
17949;SDS011;9100;48.700;9.316;2024-03-08T04:43:40;8.7;;;5.9;;
17949;SDS011;9100;48.700;9.316;2024-03-08T04:44:40;8.7;;;5.9;;
17949;SDS011;9100;48.700;9.316;2024-03-08T04:45:40;8.7;;;5.9;;
17949;SDS011;9100;48.700;9.316;2024-03-08T04:46:40;8.7;;;5.9;;
17949;SDS011;9100;48.700;9.316;2024-03-08T04:47:40;8.7;;;5.9;;
17949;SDS011;9100;48.700;9.316;2024-03-08T04:48:36;12.2;;;7.9;;
17949;SDS011;9100;48.700;9.316;2024-03-08T04:48:40;12.2;;;7.9;;
17949;SDS011;9100;48.700;9.316;2024-03-08T04:49:40;12.2;;;7.9;;
17949;SDS011;9100;48.700;9.316;2024-03-08T04:50:40;12.2;;;7.9;;
17949;SDS011;9100;48.700;9.316;2024-03-08T04:51:40;12.2;;;7.9;;
17949;SDS011;9100;48.700;9.316;2024-03-08T04:52:40;12.2;;;7.9;;
17949;SDS011;9100;48.700;9.316;2024-03-08T04:53:37;11.7;;;8.2;;
17949;SDS011;9100;48.700;9.316;2024-03-08T04:53:40;11.7;;;8.2;;
17949;SDS011;9100;48.700;9.316;2024-03-08T04:54:40;11.7;;;8.2;;
17949;SDS011;9100;48.700;9.316;2024-03-08T04:55:40;11.7;;;8.2;;
17949;SDS011;9100;48.700;9.316;2024-03-08T04:56:40;11.7;;;8.2;;
17949;SDS011;9100;48.700;9.316;2024-03-08T04:57:40;11.7;;;8.2;;
17949;SDS011;9100;48.700;9.316;2024-03-08T04:58:36;16;;;8.6;;
17949;SDS011;9100;48.700;9.316;2024-03-08T04:58:40;16;;;8.6;;
17949;SDS011;9100;48.700;9.316;2024-03-08T04:59:40;16;;;8.6;;
17949;SDS011;9100;48.700;9.316;2024-03-08T05:00:40;16;;;8.6;;
17949;SDS011;9100;48.700;9.316;2024-03-08T05:01:40;16;;;8.6;;
17949;SDS011;9100;48.700;9.316;2024-03-08T05:02:40;16;;;8.6;;
17949;SDS011;9100;48.700;9.316;2024-03-08T05:03:36;12.9;;;9.5;;
17949;SDS011;9100;48.700;9.316;2024-03-08T05:03:40;12.9;;;9.5;;
17949;SDS011;9100;48.700;9.316;2024-03-08T05:04:40;12.9;;;9.5;;
17949;SDS011;9100;48.700;9.316;2024-03-08T05:05:40;12.9;;;9.5;;
17949;SDS011;9100;48.700;9.316;2024-03-08T05:06:40;12.9;;;9.5;;
17949;SDS011;9100;48.700;9.316;2024-03-08T05:07:40;12.9;;;9.5;;
17949;SDS011;9100;48.700;9.316;2024-03-08T05:08:36;17.5;;;10.3;;
17949;SDS011;9100;48.700;9.316;2024-03-08T05:08:40;17.5;;;10.3;;
17949;SDS011;9100;48.700;9.316;2024-03-08T05:09:40;17.5;;;10.3;;
17949;SDS011;9100;48.700;9.316;2024-03-08T05:10:40;17.5;;;10.3;;
17949;SDS011;9100;48.700;9.316;2024-03-08T05:11:40;17.5;;;10.3;;
17949;SDS011;9100;48.700;9.316;2024-03-08T05:12:40;17.5;;;10.3;;
17949;SDS011;9100;48.700;9.316;2024-03-08T05:13:36;14.3;;;9.5;;
17949;SDS011;9100;48.700;9.316;2024-03-08T05:13:40;14.3;;;9.5;;
17949;SDS011;9100;48.700;9.316;2024-03-08T05:14:40;14.3;;;9.5;;